Portada
METAR-TAF:

METAR-TAF

Aeroports :

Base aèria Alcantarilla

Múrcia, Espanya

latitud: 37-57N, longitud: 001-14W, altitud: 75 m

Observació

L'informe es va fer fa 17 hores i 40 minuts, a les 18:00 UTC
Vent 9 kt del Sud-Est, variant entre Est i Sud/Sud-Est
Temperatura 29°C
Humitat 43%
Pressió 1016 hPa
Visibilitat 10 km o més
sense núvols per sota de 1500 mi sense presència de cumulonimbus.

METAR: LERI 201800Z 13009KT 090V150 CAVOK 29/15 Q1016 NOSIG

Hora: 13:40 (11:40 UTC)

Pronòstic

L'informe es va fer fa 6 hores i 40 minuts, a les 05:00 UTC
Pronòstic vàlid del 21 a les 06 UTC al 21 a les 15 UTC
Vent 3 kt amb direcció variable
Visibilitat 10 km o més
sense núvols per sota de 1500 mi sense presència de cumulonimbus.

TAF: LERI 210500Z 2106/2115 VRB03KT CAVOK

Observacions i pronòstics meteorològics de més de 4000 aeroports (METAR i TAF).

Les estacions disponibles són els punts grocs i vermells al mapa.

Posi el ratolí al punt desitjat per veure el nom de l'estació.

Feu clic per veure les observacions i els pronòstics meteorològics.

Per canviar el mapa: feu clic els botons verds amb una creu de color negre per apropar; al botó verd amb un guió per allunyar la imatge; o en les fletxes verdes per a mapes adjacents.


METAR-TAF: